sensor_id;sensor_type;location;lat;lon;timestamp;temperature;humidity
15203;DHT22;7702;51.046;5.184;2023-07-09T00:01:17;22.50;99.90
15203;DHT22;7702;51.046;5.184;2023-07-09T00:03:44;22.50;99.90
15203;DHT22;7702;51.046;5.184;2023-07-09T00:06:12;22.50;99.90
15203;DHT22;7702;51.046;5.184;2023-07-09T00:08:43;22.50;99.90
15203;DHT22;7702;51.046;5.184;2023-07-09T00:11:10;22.40;99.90
15203;DHT22;7702;51.046;5.184;2023-07-09T00:13:35;22.40;99.90
15203;DHT22;7702;51.046;5.184;2023-07-09T00:16:09;22.40;99.90
15203;DHT22;7702;51.046;5.184;2023-07-09T00:18:36;22.30;99.90
15203;DHT22;7702;51.046;5.184;2023-07-09T00:21:01;22.30;99.90
15203;DHT22;7702;51.046;5.184;2023-07-09T00:23:27;22.30;99.90
15203;DHT22;7702;51.046;5.184;2023-07-09T00:25:53;22.20;99.90
15203;DHT22;7702;51.046;5.184;2023-07-09T00:28:19;22.20;99.90
15203;DHT22;7702;51.046;5.184;2023-07-09T00:30:46;22.20;99.90
15203;DHT22;7702;51.046;5.184;2023-07-09T00:33:14;22.20;99.90
15203;DHT22;7702;51.046;5.184;2023-07-09T00:35:42;22.20;99.90
15203;DHT22;7702;51.046;5.184;2023-07-09T00:38:20;22.20;99.90
15203;DHT22;7702;51.046;5.184;2023-07-09T00:41:04;22.10;99.90
15203;DHT22;7702;51.046;5.184;2023-07-09T00:43:33;22.10;99.90
15203;DHT22;7702;51.046;5.184;2023-07-09T00:49:07;22.00;99.90
15203;DHT22;7702;51.046;5.184;2023-07-09T00:51:39;22.00;99.90
15203;DHT22;7702;51.046;5.184;2023-07-09T00:54:22;21.90;99.90
15203;DHT22;7702;51.046;5.184;2023-07-09T00:56:52;21.90;99.90
15203;DHT22;7702;51.046;5.184;2023-07-09T00:59:21;21.90;99.90
15203;DHT22;7702;51.046;5.184;2023-07-09T01:01:50;21.90;99.90
15203;DHT22;7702;51.046;5.184;2023-07-09T01:04:17;21.90;99.90
15203;DHT22;7702;51.046;5.184;2023-07-09T01:06:48;22.00;99.90
15203;DHT22;7702;51.046;5.184;2023-07-09T01:09:15;22.00;99.90
15203;DHT22;7702;51.046;5.184;2023-07-09T01:11:42;21.90;99.90
15203;DHT22;7702;51.046;5.184;2023-07-09T01:14:10;21.90;99.90
15203;DHT22;7702;51.046;5.184;2023-07-09T01:16:41;21.90;99.90
15203;DHT22;7702;51.046;5.184;2023-07-09T01:19:08;21.90;99.90
15203;DHT22;7702;51.046;5.184;2023-07-09T01:21:34;21.80;99.90
15203;DHT22;7702;51.046;5.184;2023-07-09T01:24:12;21.80;99.90
15203;DHT22;7702;51.046;5.184;2023-07-09T01:26:39;21.80;99.90
15203;DHT22;7702;51.046;5.184;2023-07-09T01:29:05;21.80;99.90
15203;DHT22;7702;51.046;5.184;2023-07-09T01:31:31;21.70;99.90
15203;DHT22;7702;51.046;5.184;2023-07-09T01:33:58;21.70;99.90
15203;DHT22;7702;51.046;5.184;2023-07-09T01:36:24;21.70;99.90
15203;DHT22;7702;51.046;5.184;2023-07-09T01:38:51;21.70;99.90
15203;DHT22;7702;51.046;5.184;2023-07-09T01:41:18;21.70;99.90
15203;DHT22;7702;51.046;5.184;2023-07-09T01:43:46;21.70;99.90
15203;DHT22;7702;51.046;5.184;2023-07-09T01:46:12;21.70;99.90
15203;DHT22;7702;51.046;5.184;2023-07-09T01:48:38;21.60;99.90
15203;DHT22;7702;51.046;5.184;2023-07-09T01:51:15;21.50;99.90
15203;DHT22;7702;51.046;5.184;2023-07-09T01:53:42;21.50;99.90
15203;DHT22;7702;51.046;5.184;2023-07-09T01:56:10;21.50;99.90
15203;DHT22;7702;51.046;5.184;2023-07-09T01:58:37;21.50;99.90
15203;DHT22;7702;51.046;5.184;2023-07-09T02:01:07;21.50;99.90
15203;DHT22;7702;51.046;5.184;2023-07-09T02:03:33;21.40;99.90
15203;DHT22;7702;51.046;5.184;2023-07-09T02:05:59;21.40;99.90
15203;DHT22;7702;51.046;5.184;2023-07-09T02:08:25;21.40;99.90
15203;DHT22;7702;51.046;5.184;2023-07-09T02:10:51;21.40;99.90
15203;DHT22;7702;51.046;5.184;2023-07-09T02:13:17;21.40;99.90
15203;DHT22;7702;51.046;5.184;2023-07-09T02:15:43;21.40;99.90
15203;DHT22;7702;51.046;5.184;2023-07-09T02:18:18;21.30;99.90
15203;DHT22;7702;51.046;5.184;2023-07-09T02:20:46;21.30;99.90
15203;DHT22;7702;51.046;5.184;2023-07-09T02:23:11;21.30;99.90
15203;DHT22;7702;51.046;5.184;2023-07-09T02:25:38;21.30;99.90
15203;DHT22;7702;51.046;5.184;2023-07-09T02:28:04;21.30;99.90
15203;DHT22;7702;51.046;5.184;2023-07-09T02:30:29;21.40;99.90
15203;DHT22;7702;51.046;5.184;2023-07-09T02:32:55;21.40;99.90
15203;DHT22;7702;51.046;5.184;2023-07-09T02:35:22;21.30;99.90
15203;DHT22;7702;51.046;5.184;2023-07-09T02:37:48;21.30;99.90
15203;DHT22;7702;51.046;5.184;2023-07-09T02:40:15;21.40;99.90
15203;DHT22;7702;51.046;5.184;2023-07-09T02:42:41;21.40;99.90
15203;DHT22;7702;51.046;5.184;2023-07-09T02:45:07;21.40;99.90
15203;DHT22;7702;51.046;5.184;2023-07-09T02:47:32;21.40;99.90
15203;DHT22;7702;51.046;5.184;2023-07-09T02:49:58;21.40;99.90
15203;DHT22;7702;51.046;5.184;2023-07-09T02:52:24;21.40;99.90
15203;DHT22;7702;51.046;5.184;2023-07-09T02:54:50;21.40;99.90
15203;DHT22;7702;51.046;5.184;2023-07-09T02:57:15;21.30;99.90
15203;DHT22;7702;51.046;5.184;2023-07-09T02:59:41;21.30;99.90
15203;DHT22;7702;51.046;5.184;2023-07-09T03:02:07;21.20;99.90
15203;DHT22;7702;51.046;5.184;2023-07-09T03:04:33;21.30;99.90
15203;DHT22;7702;51.046;5.184;2023-07-09T03:06:58;21.20;99.90
15203;DHT22;7702;51.046;5.184;2023-07-09T03:09:25;21.30;99.90
15203;DHT22;7702;51.046;5.184;2023-07-09T03:11:51;21.20;99.90
15203;DHT22;7702;51.046;5.184;2023-07-09T03:14:17;21.20;99.90
15203;DHT22;7702;51.046;5.184;2023-07-09T03:16:43;21.20;99.90
15203;DHT22;7702;51.046;5.184;2023-07-09T03:19:09;21.20;99.90
15203;DHT22;7702;51.046;5.184;2023-07-09T03:21:34;21.20;99.90
15203;DHT22;7702;51.046;5.184;2023-07-09T03:24:00;21.20;99.90
15203;DHT22;7702;51.046;5.184;2023-07-09T03:26:26;21.10;99.90
15203;DHT22;7702;51.046;5.184;2023-07-09T03:28:52;21.20;99.90
15203;DHT22;7702;51.046;5.184;2023-07-09T03:31:18;21.20;99.90
15203;DHT22;7702;51.046;5.184;2023-07-09T03:33:46;21.10;99.90
15203;DHT22;7702;51.046;5.184;2023-07-09T03:36:12;21.10;99.90
15203;DHT22;7702;51.046;5.184;2023-07-09T03:38:38;21.00;99.90
15203;DHT22;7702;51.046;5.184;2023-07-09T03:41:04;21.00;99.90
15203;DHT22;7702;51.046;5.184;2023-07-09T03:43:29;21.00;99.90
15203;DHT22;7702;51.046;5.184;2023-07-09T03:45:56;20.90;99.90
15203;DHT22;7702;51.046;5.184;2023-07-09T03:48:21;20.90;99.90
15203;DHT22;7702;51.046;5.184;2023-07-09T03:50:48;20.90;99.90
15203;DHT22;7702;51.046;5.184;2023-07-09T03:53:14;20.90;99.90
15203;DHT22;7702;51.046;5.184;2023-07-09T03:55:40;20.90;99.90
15203;DHT22;7702;51.046;5.184;2023-07-09T03:58:07;20.90;99.90
15203;DHT22;7702;51.046;5.184;2023-07-09T04:00:33;20.90;99.90
15203;DHT22;7702;51.046;5.184;2023-07-09T04:02:59;20.90;99.90
15203;DHT22;7702;51.046;5.184;2023-07-09T04:05:26;20.90;99.90
15203;DHT22;7702;51.046;5.184;2023-07-09T04:07:52;20.90;99.90
15203;DHT22;7702;51.046;5.184;2023-07-09T04:10:18;20.90;99.90
15203;DHT22;7702;51.046;5.184;2023-07-09T04:12:44;21.00;99.90
15203;DHT22;7702;51.046;5.184;2023-07-09T04:15:11;21.00;99.90
15203;DHT22;7702;51.046;5.184;2023-07-09T04:17:40;21.00;99.90
15203;DHT22;7702;51.046;5.184;2023-07-09T04:20:07;21.10;99.90
15203;DHT22;7702;51.046;5.184;2023-07-09T04:22:38;21.00;99.90
15203;DHT22;7702;51.046;5.184;2023-07-09T04:25:06;21.10;99.90
15203;DHT22;7702;51.046;5.184;2023-07-09T04:27:32;21.10;99.90
15203;DHT22;7702;51.046;5.184;2023-07-09T04:29:59;21.20;99.90
15203;DHT22;7702;51.046;5.184;2023-07-09T04:32:25;21.20;99.90
15203;DHT22;7702;51.046;5.184;2023-07-09T04:34:50;21.30;99.90
15203;DHT22;7702;51.046;5.184;2023-07-09T04:37:17;21.30;99.90
15203;DHT22;7702;51.046;5.184;2023-07-09T04:39:43;21.40;99.90
15203;DHT22;7702;51.046;5.184;2023-07-09T04:42:14;21.40;99.90
15203;DHT22;7702;51.046;5.184;2023-07-09T04:44:40;21.40;99.90
15203;DHT22;7702;51.046;5.184;2023-07-09T04:47:07;21.50;99.90
15203;DHT22;7702;51.046;5.184;2023-07-09T04:49:32;21.60;99.90
15203;DHT22;7702;51.046;5.184;2023-07-09T04:51:58;21.60;99.90
15203;DHT22;7702;51.046;5.184;2023-07-09T04:54:25;21.60;99.90
15203;DHT22;7702;51.046;5.184;2023-07-09T04:56:51;21.70;99.90
15203;DHT22;7702;51.046;5.184;2023-07-09T04:59:16;21.80;99.90
15203;DHT22;7702;51.046;5.184;2023-07-09T05:01:42;21.80;99.90
15203;DHT22;7702;51.046;5.184;2023-07-09T05:04:08;21.90;99.90
15203;DHT22;7702;51.046;5.184;2023-07-09T05:06:34;22.00;99.90
15203;DHT22;7702;51.046;5.184;2023-07-09T05:09:00;22.10;99.90
15203;DHT22;7702;51.046;5.184;2023-07-09T05:11:25;22.20;99.90
15203;DHT22;7702;51.046;5.184;2023-07-09T05:13:51;22.30;99.90
15203;DHT22;7702;51.046;5.184;2023-07-09T05:16:17;22.40;99.90
15203;DHT22;7702;51.046;5.184;2023-07-09T05:18:45;22.50;99.90
15203;DHT22;7702;51.046;5.184;2023-07-09T05:21:11;22.60;99.90
15203;DHT22;7702;51.046;5.184;2023-07-09T05:23:36;22.70;99.90
15203;DHT22;7702;51.046;5.184;2023-07-09T05:26:03;22.80;99.90
15203;DHT22;7702;51.046;5.184;2023-07-09T05:28:30;22.90;99.90
15203;DHT22;7702;51.046;5.184;2023-07-09T05:30:56;23.00;99.90
15203;DHT22;7702;51.046;5.184;2023-07-09T05:33:22;23.10;99.90
15203;DHT22;7702;51.046;5.184;2023-07-09T05:35:48;23.30;99.90
15203;DHT22;7702;51.046;5.184;2023-07-09T05:38:14;23.50;99.90
15203;DHT22;7702;51.046;5.184;2023-07-09T05:40:40;23.50;99.90
15203;DHT22;7702;51.046;5.184;2023-07-09T05:43:06;23.60;99.90
15203;DHT22;7702;51.046;5.184;2023-07-09T05:45:33;23.70;99.90
15203;DHT22;7702;51.046;5.184;2023-07-09T05:47:59;23.80;99.90
15203;DHT22;7702;51.046;5.184;2023-07-09T05:50:26;23.90;99.90
15203;DHT22;7702;51.046;5.184;2023-07-09T05:52:52;24.10;99.90
15203;DHT22;7702;51.046;5.184;2023-07-09T05:55:18;24.20;99.90
15203;DHT22;7702;51.046;5.184;2023-07-09T05:57:44;24.40;99.90
15203;DHT22;7702;51.046;5.184;2023-07-09T06:00:10;24.40;99.90
15203;DHT22;7702;51.046;5.184;2023-07-09T06:02:37;24.50;99.90
15203;DHT22;7702;51.046;5.184;2023-07-09T06:05:03;24.70;99.90
15203;DHT22;7702;51.046;5.184;2023-07-09T06:07:28;24.80;99.90
15203;DHT22;7702;51.046;5.184;2023-07-09T06:09:54;25.00;99.90
15203;DHT22;7702;51.046;5.184;2023-07-09T06:12:20;25.10;99.90
15203;DHT22;7702;51.046;5.184;2023-07-09T06:14:49;25.20;99.90
15203;DHT22;7702;51.046;5.184;2023-07-09T06:17:14;25.20;99.90
15203;DHT22;7702;51.046;5.184;2023-07-09T06:19:40;25.30;99.90
15203;DHT22;7702;51.046;5.184;2023-07-09T06:22:06;25.40;99.90
15203;DHT22;7702;51.046;5.184;2023-07-09T06:24:32;25.40;99.90
15203;DHT22;7702;51.046;5.184;2023-07-09T06:26:57;25.50;99.90
15203;DHT22;7702;51.046;5.184;2023-07-09T06:29:24;25.50;99.90
15203;DHT22;7702;51.046;5.184;2023-07-09T06:31:50;25.60;99.90
15203;DHT22;7702;51.046;5.184;2023-07-09T06:34:16;25.70;99.90
15203;DHT22;7702;51.046;5.184;2023-07-09T06:36:42;25.80;99.90
15203;DHT22;7702;51.046;5.184;2023-07-09T06:39:08;26.10;99.90
15203;DHT22;7702;51.046;5.184;2023-07-09T06:41:35;26.00;99.90
15203;DHT22;7702;51.046;5.184;2023-07-09T06:44:08;26.20;99.90
15203;DHT22;7702;51.046;5.184;2023-07-09T06:46:34;26.10;99.90
15203;DHT22;7702;51.046;5.184;2023-07-09T06:49:01;26.20;99.90
15203;DHT22;7702;51.046;5.184;2023-07-09T06:51:27;26.30;99.90
15203;DHT22;7702;51.046;5.184;2023-07-09T06:53:52;26.40;99.90
15203;DHT22;7702;51.046;5.184;2023-07-09T06:56:18;26.60;99.90
15203;DHT22;7702;51.046;5.184;2023-07-09T06:58:45;26.60;99.90
15203;DHT22;7702;51.046;5.184;2023-07-09T07:01:11;26.70;99.90
15203;DHT22;7702;51.046;5.184;2023-07-09T07:03:37;26.60;99.90
15203;DHT22;7702;51.046;5.184;2023-07-09T07:06:04;26.70;99.90
15203;DHT22;7702;51.046;5.184;2023-07-09T07:08:32;26.60;99.90
15203;DHT22;7702;51.046;5.184;2023-07-09T07:11:00;26.70;99.90
15203;DHT22;7702;51.046;5.184;2023-07-09T07:13:30;26.70;99.90
15203;DHT22;7702;51.046;5.184;2023-07-09T07:15:56;27.00;99.90
15203;DHT22;7702;51.046;5.184;2023-07-09T07:18:22;27.10;99.90
15203;DHT22;7702;51.046;5.184;2023-07-09T07:20:49;27.20;99.90
15203;DHT22;7702;51.046;5.184;2023-07-09T07:23:14;27.20;99.90
15203;DHT22;7702;51.046;5.184;2023-07-09T07:25:41;27.40;99.90
15203;DHT22;7702;51.046;5.184;2023-07-09T07:28:07;27.70;99.90
15203;DHT22;7702;51.046;5.184;2023-07-09T07:30:32;28.10;99.90
15203;DHT22;7702;51.046;5.184;2023-07-09T07:32:58;28.20;99.90
15203;DHT22;7702;51.046;5.184;2023-07-09T07:35:24;28.30;99.90
15203;DHT22;7702;51.046;5.184;2023-07-09T07:37:50;28.30;99.90
15203;DHT22;7702;51.046;5.184;2023-07-09T07:40:15;28.40;99.90
15203;DHT22;7702;51.046;5.184;2023-07-09T07:42:41;28.70;99.90
15203;DHT22;7702;51.046;5.184;2023-07-09T07:45:07;29.00;99.90
15203;DHT22;7702;51.046;5.184;2023-07-09T07:47:33;29.30;99.90
15203;DHT22;7702;51.046;5.184;2023-07-09T07:49:59;29.50;99.90
15203;DHT22;7702;51.046;5.184;2023-07-09T07:52:25;29.40;99.90
15203;DHT22;7702;51.046;5.184;2023-07-09T07:54:51;29.60;99.90
15203;DHT22;7702;51.046;5.184;2023-07-09T07:57:18;29.50;99.90
15203;DHT22;7702;51.046;5.184;2023-07-09T07:59:44;29.50;99.90
15203;DHT22;7702;51.046;5.184;2023-07-09T08:02:13;29.90;99.90
15203;DHT22;7702;51.046;5.184;2023-07-09T08:04:40;29.90;99.90
15203;DHT22;7702;51.046;5.184;2023-07-09T08:07:08;30.30;99.90
15203;DHT22;7702;51.046;5.184;2023-07-09T08:09:34;30.50;99.90
15203;DHT22;7702;51.046;5.184;2023-07-09T08:12:01;30.50;99.90
15203;DHT22;7702;51.046;5.184;2023-07-09T08:14:26;30.60;99.90
15203;DHT22;7702;51.046;5.184;2023-07-09T08:16:52;30.60;99.90
15203;DHT22;7702;51.046;5.184;2023-07-09T08:19:19;30.60;99.90
15203;DHT22;7702;51.046;5.184;2023-07-09T08:21:45;30.70;99.90
15203;DHT22;7702;51.046;5.184;2023-07-09T08:24:12;30.90;99.90
15203;DHT22;7702;51.046;5.184;2023-07-09T08:26:38;31.20;99.90
15203;DHT22;7702;51.046;5.184;2023-07-09T08:29:04;31.40;99.90
15203;DHT22;7702;51.046;5.184;2023-07-09T08:31:30;31.30;99.90
15203;DHT22;7702;51.046;5.184;2023-07-09T08:33:56;31.10;99.90
15203;DHT22;7702;51.046;5.184;2023-07-09T08:36:23;31.40;99.90
15203;DHT22;7702;51.046;5.184;2023-07-09T08:38:49;31.20;99.90
15203;DHT22;7702;51.046;5.184;2023-07-09T08:41:24;31.40;99.90
15203;DHT22;7702;51.046;5.184;2023-07-09T08:49:46;31.50;99.90
15203;DHT22;7702;51.046;5.184;2023-07-09T08:52:38;31.80;99.90
15203;DHT22;7702;51.046;5.184;2023-07-09T08:55:11;32.30;99.90
15203;DHT22;7702;51.046;5.184;2023-07-09T08:57:48;32.60;99.90
15203;DHT22;7702;51.046;5.184;2023-07-09T09:00:24;32.70;99.90
15203;DHT22;7702;51.046;5.184;2023-07-09T09:02:58;32.50;99.90
15203;DHT22;7702;51.046;5.184;2023-07-09T09:05:25;32.60;99.90
15203;DHT22;7702;51.046;5.184;2023-07-09T09:08:08;33.20;99.90
15203;DHT22;7702;51.046;5.184;2023-07-09T09:10:46;33.60;99.90
15203;DHT22;7702;51.046;5.184;2023-07-09T09:13:14;33.70;99.90
15203;DHT22;7702;51.046;5.184;2023-07-09T09:15:43;33.90;99.90
15203;DHT22;7702;51.046;5.184;2023-07-09T09:18:23;34.10;99.90
15203;DHT22;7702;51.046;5.184;2023-07-09T09:21:03;34.20;99.90
15203;DHT22;7702;51.046;5.184;2023-07-09T09:23:45;34.40;99.90
15203;DHT22;7702;51.046;5.184;2023-07-09T09:26:21;34.60;99.90
15203;DHT22;7702;51.046;5.184;2023-07-09T09:28:48;34.60;98.50
15203;DHT22;7702;51.046;5.184;2023-07-09T09:31:15;34.90;96.80
15203;DHT22;7702;51.046;5.184;2023-07-09T09:33:43;34.90;95.80
15203;DHT22;7702;51.046;5.184;2023-07-09T09:36:25;34.80;96.10
15203;DHT22;7702;51.046;5.184;2023-07-09T09:38:51;35.10;96.80
15203;DHT22;7702;51.046;5.184;2023-07-09T09:41:20;35.10;94.50
15203;DHT22;7702;51.046;5.184;2023-07-09T09:43:48;34.90;96.20
15203;DHT22;7702;51.046;5.184;2023-07-09T09:46:22;34.30;96.70
15203;DHT22;7702;51.046;5.184;2023-07-09T09:48:53;34.50;96.70
15203;DHT22;7702;51.046;5.184;2023-07-09T09:51:19;34.60;96.70
15203;DHT22;7702;51.046;5.184;2023-07-09T09:53:48;34.80;96.80
15203;DHT22;7702;51.046;5.184;2023-07-09T09:56:20;35.10;97.10
15203;DHT22;7702;51.046;5.184;2023-07-09T09:58:46;35.40;96.10
15203;DHT22;7702;51.046;5.184;2023-07-09T10:01:15;35.50;95.80
15203;DHT22;7702;51.046;5.184;2023-07-09T10:03:41;35.50;95.80
15203;DHT22;7702;51.046;5.184;2023-07-09T10:06:22;35.70;94.20
15203;DHT22;7702;51.046;5.184;2023-07-09T10:09:00;36.20;93.10
15203;DHT22;7702;51.046;5.184;2023-07-09T10:11:48;35.90;93.70
15203;DHT22;7702;51.046;5.184;2023-07-09T10:14:31;35.60;94.00
15203;DHT22;7702;51.046;5.184;2023-07-09T10:17:05;35.40;95.00
15203;DHT22;7702;51.046;5.184;2023-07-09T10:22:41;35.20;94.80
15203;DHT22;7702;51.046;5.184;2023-07-09T10:30:40;36.90;90.40
15203;DHT22;7702;51.046;5.184;2023-07-09T10:33:25;36.90;90.50
15203;DHT22;7702;51.046;5.184;2023-07-09T10:41:26;36.90;82.50
15203;DHT22;7702;51.046;5.184;2023-07-09T10:44:08;36.90;81.90
15203;DHT22;7702;51.046;5.184;2023-07-09T10:46:39;37.30;87.40
15203;DHT22;7702;51.046;5.184;2023-07-09T10:49:12;36.80;81.50
15203;DHT22;7702;51.046;5.184;2023-07-09T10:51:50;37.20;82.30
15203;DHT22;7702;51.046;5.184;2023-07-09T10:54:59;36.80;84.50
15203;DHT22;7702;51.046;5.184;2023-07-09T10:57:41;37.30;86.90
15203;DHT22;7702;51.046;5.184;2023-07-09T11:00:17;36.40;78.10
15203;DHT22;7702;51.046;5.184;2023-07-09T11:02:44;35.10;85.90
15203;DHT22;7702;51.046;5.184;2023-07-09T11:05:11;34.90;84.80
15203;DHT22;7702;51.046;5.184;2023-07-09T11:07:45;34.90;89.80
15203;DHT22;7702;51.046;5.184;2023-07-09T11:10:34;35.00;90.10
15203;DHT22;7702;51.046;5.184;2023-07-09T11:13:10;34.90;89.50
15203;DHT22;7702;51.046;5.184;2023-07-09T11:15:39;35.00;90.50
15203;DHT22;7702;51.046;5.184;2023-07-09T11:18:10;35.00;90.50
15203;DHT22;7702;51.046;5.184;2023-07-09T11:20:44;34.60;91.80
15203;DHT22;7702;51.046;5.184;2023-07-09T11:23:20;34.50;91.20
15203;DHT22;7702;51.046;5.184;2023-07-09T11:25:48;34.20;91.90
15203;DHT22;7702;51.046;5.184;2023-07-09T11:28:33;34.10;96.10
15203;DHT22;7702;51.046;5.184;2023-07-09T11:31:08;33.50;97.80
15203;DHT22;7702;51.046;5.184;2023-07-09T11:33:34;32.80;99.90
15203;DHT22;7702;51.046;5.184;2023-07-09T11:36:13;32.10;99.90
15203;DHT22;7702;51.046;5.184;2023-07-09T11:38:47;31.90;99.90
15203;DHT22;7702;51.046;5.184;2023-07-09T11:41:41;31.60;99.90
15203;DHT22;7702;51.046;5.184;2023-07-09T11:44:14;31.30;99.90
15203;DHT22;7702;51.046;5.184;2023-07-09T11:52:07;30.50;99.90
15203;DHT22;7702;51.046;5.184;2023-07-09T11:54:37;30.10;99.90
15203;DHT22;7702;51.046;5.184;2023-07-09T11:57:10;30.10;99.90
15203;DHT22;7702;51.046;5.184;2023-07-09T11:59:41;30.20;99.90
15203;DHT22;7702;51.046;5.184;2023-07-09T12:02:20;30.00;99.90
15203;DHT22;7702;51.046;5.184;2023-07-09T12:04:51;29.90;99.90
15203;DHT22;7702;51.046;5.184;2023-07-09T12:07:18;29.70;99.90
15203;DHT22;7702;51.046;5.184;2023-07-09T12:09:49;29.50;99.90
15203;DHT22;7702;51.046;5.184;2023-07-09T12:12:26;29.30;99.90
15203;DHT22;7702;51.046;5.184;2023-07-09T12:14:53;29.10;99.90
15203;DHT22;7702;51.046;5.184;2023-07-09T12:17:23;28.90;99.90
15203;DHT22;7702;51.046;5.184;2023-07-09T12:19:51;28.60;99.90
15203;DHT22;7702;51.046;5.184;2023-07-09T12:22:20;28.40;99.90
15203;DHT22;7702;51.046;5.184;2023-07-09T12:24:48;28.30;99.90
15203;DHT22;7702;51.046;5.184;2023-07-09T12:27:23;28.10;99.90
15203;DHT22;7702;51.046;5.184;2023-07-09T12:29:51;27.80;99.90
15203;DHT22;7702;51.046;5.184;2023-07-09T12:32:18;27.60;99.90
15203;DHT22;7702;51.046;5.184;2023-07-09T12:34:49;27.50;99.90
15203;DHT22;7702;51.046;5.184;2023-07-09T12:37:16;27.40;99.90
15203;DHT22;7702;51.046;5.184;2023-07-09T12:39:42;27.50;99.90
15203;DHT22;7702;51.046;5.184;2023-07-09T12:42:19;27.40;99.90
15203;DHT22;7702;51.046;5.184;2023-07-09T12:44:46;27.40;99.90
15203;DHT22;7702;51.046;5.184;2023-07-09T12:47:14;27.40;99.90
15203;DHT22;7702;51.046;5.184;2023-07-09T12:49:43;27.30;99.90
15203;DHT22;7702;51.046;5.184;2023-07-09T12:52:20;27.10;99.90
15203;DHT22;7702;51.046;5.184;2023-07-09T12:54:56;27.00;99.90
15203;DHT22;7702;51.046;5.184;2023-07-09T12:57:23;27.00;99.90
15203;DHT22;7702;51.046;5.184;2023-07-09T12:59:49;26.90;99.90
15203;DHT22;7702;51.046;5.184;2023-07-09T13:04:44;25.60;99.90
15203;DHT22;7702;51.046;5.184;2023-07-09T13:07:26;25.20;99.90
15203;DHT22;7702;51.046;5.184;2023-07-09T13:09:53;24.90;99.90
15203;DHT22;7702;51.046;5.184;2023-07-09T13:12:32;24.50;99.90
15203;DHT22;7702;51.046;5.184;2023-07-09T13:14:58;24.10;99.90
15203;DHT22;7702;51.046;5.184;2023-07-09T13:17:29;24.00;99.90
15203;DHT22;7702;51.046;5.184;2023-07-09T13:19:55;23.70;99.90
15203;DHT22;7702;51.046;5.184;2023-07-09T13:22:22;23.40;99.90
15203;DHT22;7702;51.046;5.184;2023-07-09T13:24:48;23.10;99.90
15203;DHT22;7702;51.046;5.184;2023-07-09T13:27:15;22.90;99.90
15203;DHT22;7702;51.046;5.184;2023-07-09T13:29:42;22.90;99.90
15203;DHT22;7702;51.046;5.184;2023-07-09T13:32:13;22.80;99.90
15203;DHT22;7702;51.046;5.184;2023-07-09T13:34:40;22.70;99.90
15203;DHT22;7702;51.046;5.184;2023-07-09T13:37:14;22.60;99.90
15203;DHT22;7702;51.046;5.184;2023-07-09T13:39:41;22.60;99.90
15203;DHT22;7702;51.046;5.184;2023-07-09T13:42:12;22.60;99.90
15203;DHT22;7702;51.046;5.184;2023-07-09T13:44:40;22.60;99.90
15203;DHT22;7702;51.046;5.184;2023-07-09T13:47:13;22.60;99.90
15203;DHT22;7702;51.046;5.184;2023-07-09T13:49:42;22.70;99.90
15203;DHT22;7702;51.046;5.184;2023-07-09T13:52:17;22.80;99.90
15203;DHT22;7702;51.046;5.184;2023-07-09T13:54:43;23.00;99.90
15203;DHT22;7702;51.046;5.184;2023-07-09T13:57:14;23.20;99.90
15203;DHT22;7702;51.046;5.184;2023-07-09T13:59:41;23.40;99.90
15203;DHT22;7702;51.046;5.184;2023-07-09T14:02:36;23.50;99.90
15203;DHT22;7702;51.046;5.184;2023-07-09T14:05:04;23.80;99.90
15203;DHT22;7702;51.046;5.184;2023-07-09T14:07:32;24.10;99.90
15203;DHT22;7702;51.046;5.184;2023-07-09T14:09:59;23.90;99.90
15203;DHT22;7702;51.046;5.184;2023-07-09T14:12:26;24.00;99.90
15203;DHT22;7702;51.046;5.184;2023-07-09T14:14:53;24.00;99.90
15203;DHT22;7702;51.046;5.184;2023-07-09T14:17:22;24.20;99.90
15203;DHT22;7702;51.046;5.184;2023-07-09T14:19:48;24.60;99.90
15203;DHT22;7702;51.046;5.184;2023-07-09T14:22:39;24.60;99.90
15203;DHT22;7702;51.046;5.184;2023-07-09T14:25:05;24.70;99.90
15203;DHT22;7702;51.046;5.184;2023-07-09T14:27:32;25.10;99.90
15203;DHT22;7702;51.046;5.184;2023-07-09T14:29:57;25.60;99.90
15203;DHT22;7702;51.046;5.184;2023-07-09T14:32:34;25.70;99.90
15203;DHT22;7702;51.046;5.184;2023-07-09T14:35:02;26.10;99.90
15203;DHT22;7702;51.046;5.184;2023-07-09T14:37:29;26.40;99.90
15203;DHT22;7702;51.046;5.184;2023-07-09T14:39:55;26.50;99.90
15203;DHT22;7702;51.046;5.184;2023-07-09T14:42:21;26.90;99.90
15203;DHT22;7702;51.046;5.184;2023-07-09T14:44:48;27.00;99.90
15203;DHT22;7702;51.046;5.184;2023-07-09T14:47:19;27.20;99.90
15203;DHT22;7702;51.046;5.184;2023-07-09T14:49:45;27.00;99.90
15203;DHT22;7702;51.046;5.184;2023-07-09T14:52:16;27.70;99.90
15203;DHT22;7702;51.046;5.184;2023-07-09T14:54:44;28.00;99.90
15203;DHT22;7702;51.046;5.184;2023-07-09T14:57:24;27.80;99.90
15203;DHT22;7702;51.046;5.184;2023-07-09T14:59:52;28.20;99.90
15203;DHT22;7702;51.046;5.184;2023-07-09T15:04:49;29.40;99.90
15203;DHT22;7702;51.046;5.184;2023-07-09T15:07:15;29.50;99.90
15203;DHT22;7702;51.046;5.184;2023-07-09T15:09:41;29.60;99.90
15203;DHT22;7702;51.046;5.184;2023-07-09T15:12:16;29.50;99.90
15203;DHT22;7702;51.046;5.184;2023-07-09T15:14:43;29.60;99.90
15203;DHT22;7702;51.046;5.184;2023-07-09T15:17:11;29.60;99.90
15203;DHT22;7702;51.046;5.184;2023-07-09T15:19:37;29.50;99.90
15203;DHT22;7702;51.046;5.184;2023-07-09T15:22:03;29.40;99.90
15203;DHT22;7702;51.046;5.184;2023-07-09T15:24:33;29.20;99.90
15203;DHT22;7702;51.046;5.184;2023-07-09T15:26:59;29.10;99.90
15203;DHT22;7702;51.046;5.184;2023-07-09T15:29:26;29.50;99.90
15203;DHT22;7702;51.046;5.184;2023-07-09T15:31:52;29.70;99.90
15203;DHT22;7702;51.046;5.184;2023-07-09T15:34:18;30.20;99.90
15203;DHT22;7702;51.046;5.184;2023-07-09T15:36:47;30.90;99.90
15203;DHT22;7702;51.046;5.184;2023-07-09T15:39:14;31.30;99.90
15203;DHT22;7702;51.046;5.184;2023-07-09T15:41:40;32.00;99.90
15203;DHT22;7702;51.046;5.184;2023-07-09T15:44:14;32.20;99.90
15203;DHT22;7702;51.046;5.184;2023-07-09T15:46:44;32.60;99.90
15203;DHT22;7702;51.046;5.184;2023-07-09T15:49:11;32.90;99.90
15203;DHT22;7702;51.046;5.184;2023-07-09T15:51:38;32.80;99.90
15203;DHT22;7702;51.046;5.184;2023-07-09T15:54:15;33.10;99.90
15203;DHT22;7702;51.046;5.184;2023-07-09T15:56:41;33.10;99.90
15203;DHT22;7702;51.046;5.184;2023-07-09T15:59:34;33.90;99.90
15203;DHT22;7702;51.046;5.184;2023-07-09T16:02:00;34.40;99.90
15203;DHT22;7702;51.046;5.184;2023-07-09T16:04:26;34.00;99.90
15203;DHT22;7702;51.046;5.184;2023-07-09T16:06:52;33.70;99.90
15203;DHT22;7702;51.046;5.184;2023-07-09T16:09:19;33.70;99.90
15203;DHT22;7702;51.046;5.184;2023-07-09T16:11:47;32.50;99.90
15203;DHT22;7702;51.046;5.184;2023-07-09T16:14:22;31.70;99.90
15203;DHT22;7702;51.046;5.184;2023-07-09T16:16:50;31.50;99.90
15203;DHT22;7702;51.046;5.184;2023-07-09T16:19:22;31.50;99.90
15203;DHT22;7702;51.046;5.184;2023-07-09T16:21:51;31.80;99.90
15203;DHT22;7702;51.046;5.184;2023-07-09T16:24:27;32.00;99.90
15203;DHT22;7702;51.046;5.184;2023-07-09T16:26:55;32.20;99.90
15203;DHT22;7702;51.046;5.184;2023-07-09T16:29:39;31.60;99.90